Time;durP1;ratioP1;P1;durP2;ratioP2;P2;SDS_P1;SDS_P2;PMS_P1;PMS_P2;Temp;Humidity;BMP_temperature;BMP_pressure;BME280_temperature;BME280_humidity;BME280_pressure;Samples;Min_cycle;Max_cycle;Signal;HPM_P1;HPM_P2
2023/03/03 00:00:57;;;;;;;21.97;14.10;;;1.10;99.90;;;;;;5037568;28;20170;-81
2023/03/03 00:03:25;;;;;;;23.63;14.27;;;1.20;99.90;;;;;;5037432;28;20260;-81
2023/03/03 00:05:51;;;;;;;22.97;14.30;;;1.10;99.90;;;;;;5037843;28;20209;-81
2023/03/03 00:08:18;;;;;;;26.03;14.57;;;1.10;99.90;;;;;;5020153;28;20220;-81
2023/03/03 00:10:44;;;;;;;23.60;13.83;;;1.10;99.90;;;;;;5019648;28;20174;-80
2023/03/03 00:13:16;;;;;;;25.77;14.77;;;1.10;99.90;;;;;;5019428;28;20181;-80
2023/03/03 00:15:43;;;;;;;24.67;14.43;;;1.20;99.90;;;;;;5037688;28;20178;-80
2023/03/03 00:18:23;;;;;;;25.70;15.10;;;1.20;99.90;;;;;;5037404;28;20182;-80
2023/03/03 00:20:53;;;;;;;23.17;14.60;;;1.20;99.90;;;;;;5019945;28;20173;-80
2023/03/03 00:23:36;;;;;;;24.33;14.67;;;1.20;99.90;;;;;;5037351;28;20205;-80
2023/03/03 00:26:15;;;;;;;24.37;14.37;;;1.10;99.90;;;;;;5037327;28;20178;-81
2023/03/03 00:28:47;;;;;;;23.87;13.63;;;1.10;99.90;;;;;;5037427;28;20297;-81
2023/03/03 00:31:19;;;;;;;24.13;14.17;;;1.10;99.90;;;;;;5036162;28;20679;-80
2023/03/03 00:33:53;;;;;;;24.43;13.70;;;1.00;99.90;;;;;;5019237;28;20178;-80
2023/03/03 00:36:38;;;;;;;23.57;14.07;;;1.00;99.90;;;;;;5036668;28;20679;-80
2023/03/03 00:39:22;;;;;;;25.60;13.93;;;1.00;99.90;;;;;;5018879;28;20285;-80
2023/03/03 00:41:48;;;;;;;21.73;13.03;;;0.90;99.90;;;;;;5036222;28;20663;-80
2023/03/03 00:44:57;;;;;;;22.50;12.93;;;0.70;99.90;;;;;;5018730;28;20206;-80
2023/03/03 00:47:42;;;;;;;23.77;13.53;;;0.50;99.90;;;;;;5013878;28;20182;-80
2023/03/03 00:50:10;;;;;;;22.27;13.63;;;0.30;99.90;;;;;;5018724;28;20217;-80
2023/03/03 00:52:44;;;;;;;25.47;14.83;;;0.20;99.90;;;;;;5036128;28;20209;-80
2023/03/03 00:55:11;;;;;;;27.50;15.20;;;0.30;99.90;;;;;;5018179;28;20178;-80
2023/03/03 00:57:36;;;;;;;22.90;13.93;;;0.40;99.90;;;;;;5018178;28;20185;-80
2023/03/03 01:00:03;;;;;;;25.10;14.60;;;0.50;99.90;;;;;;5035709;28;20198;-80
2023/03/03 01:02:29;;;;;;;24.23;14.20;;;0.50;99.90;;;;;;5017963;28;20174;-81
2023/03/03 01:04:55;;;;;;;23.07;14.27;;;0.50;99.90;;;;;;5018455;28;20262;-81
2023/03/03 01:07:21;;;;;;;25.03;14.67;;;0.50;99.90;;;;;;5035294;28;20627;-80
2023/03/03 01:09:47;;;;;;;24.37;15.10;;;0.50;99.90;;;;;;5017809;28;20194;-80
2023/03/03 01:12:13;;;;;;;25.37;15.37;;;0.50;99.90;;;;;;5017865;28;20645;-80
2023/03/03 01:14:39;;;;;;;25.37;15.60;;;0.40;99.90;;;;;;5035629;28;20182;-80
2023/03/03 01:17:05;;;;;;;27.37;16.00;;;0.40;99.90;;;;;;5017737;28;20185;-80
2023/03/03 01:19:31;;;;;;;23.53;15.03;;;0.40;99.90;;;;;;5031141;28;20206;-79
2023/03/03 01:21:57;;;;;;;26.63;15.80;;;0.40;99.90;;;;;;5029457;28;20179;-80
2023/03/03 01:24:22;;;;;;;28.57;16.87;;;0.30;99.90;;;;;;5055477;28;20200;-79
2023/03/03 01:26:48;;;;;;;29.37;17.17;;;0.30;99.90;;;;;;5055981;28;20644;-79
2023/03/03 01:29:14;;;;;;;30.07;16.83;;;0.20;99.90;;;;;;5055755;28;20200;-80
2023/03/03 01:31:39;;;;;;;25.10;14.93;;;0.20;99.90;;;;;;5037804;28;20177;-80
2023/03/03 01:34:06;;;;;;;26.50;15.20;;;0.30;99.90;;;;;;5037225;28;20185;-80
2023/03/03 01:36:32;;;;;;;27.80;15.23;;;0.30;99.90;;;;;;5037628;28;20189;-79
2023/03/03 01:38:58;;;;;;;26.40;15.60;;;0.20;99.90;;;;;;5038177;28;20228;-80
2023/03/03 01:41:29;;;;;;;26.50;15.23;;;0.20;99.90;;;;;;5037094;28;20207;-79
2023/03/03 01:43:55;;;;;;;24.90;14.43;;;0.20;99.90;;;;;;5054796;28;20698;-79
2023/03/03 01:46:23;;;;;;;23.50;13.37;;;0.10;99.90;;;;;;5054040;28;20184;-79
2023/03/03 01:48:55;;;;;;;22.50;14.27;;;0.10;99.90;;;;;;5048944;28;20239;-79
2023/03/03 01:51:51;;;;;;;27.00;15.90;;;0.10;99.90;;;;;;5037841;28;20165;-81
2023/03/03 01:54:25;;;;;;;27.63;16.03;;;0.10;99.90;;;;;;5035801;28;20192;-79
2023/03/03 01:56:54;;;;;;;29.07;17.03;;;0.00;99.90;;;;;;5037979;28;20196;-79
2023/03/03 01:59:28;;;;;;;31.43;17.87;;;-0.10;99.90;;;;;;5037458;28;20201;-79
2023/03/03 02:01:53;;;;;;;34.23;18.30;;;0.00;99.90;;;;;;5037916;28;20698;-79
2023/03/03 02:04:20;;;;;;;33.10;18.80;;;0.00;99.90;;;;;;5037041;28;20199;-79
2023/03/03 02:06:55;;;;;;;34.97;18.17;;;0.10;99.90;;;;;;5046887;28;20165;-79
2023/03/03 02:09:40;;;;;;;34.63;18.10;;;0.30;99.90;;;;;;5037561;28;20203;-79
2023/03/03 02:12:10;;;;;;;34.53;19.17;;;0.30;99.90;;;;;;5055225;28;20169;-79
2023/03/03 02:14:35;;;;;;;33.17;18.53;;;0.40;99.90;;;;;;5037569;28;20243;-79
2023/03/03 02:17:01;;;;;;;33.10;18.30;;;0.50;99.90;;;;;;5037176;28;20204;-79
2023/03/03 02:20:05;;;;;;;35.73;19.07;;;0.50;99.90;;;;;;5055223;28;20186;-79
2023/03/03 02:22:45;;;;;;;35.10;18.27;;;0.50;99.90;;;;;;4954151;29;20675;-79
2023/03/03 02:25:20;;;;;;;36.90;19.70;;;0.60;99.90;;;;;;5028705;28;20180;-80
2023/03/03 02:27:45;;;;;;;35.83;19.27;;;0.50;99.90;;;;;;5037113;28;20222;-79
2023/03/03 02:30:15;;;;;;;38.30;19.50;;;0.50;99.90;;;;;;5054357;28;20192;-79
2023/03/03 02:32:41;;;;;;;37.70;19.23;;;0.50;99.90;;;;;;5037221;28;20651;-80
2023/03/03 02:35:39;;;;;;;35.83;19.67;;;0.50;99.90;;;;;;5054591;28;20208;-80
2023/03/03 02:38:31;;;;;;;39.90;19.60;;;0.60;99.90;;;;;;4983546;28;20264;-79
2023/03/03 02:41:14;;;;;;;38.03;19.50;;;0.50;99.90;;;;;;5054771;28;20253;-80
2023/03/03 02:43:59;;;;;;;41.27;20.53;;;0.50;99.90;;;;;;5054944;28;20360;-79
2023/03/03 02:46:27;;;;;;;36.30;19.17;;;0.50;99.90;;;;;;5037048;28;20175;-79
2023/03/03 02:48:52;;;;;;;36.77;20.17;;;0.40;99.90;;;;;;5115069;22;20271;-79
2023/03/03 02:51:18;;;;;;;35.37;18.97;;;0.30;99.90;;;;;;5074540;28;20282;-80
2023/03/03 02:53:44;;;;;;;36.67;19.60;;;0.30;99.90;;;;;;5078713;28;20183;-82
2023/03/03 02:56:09;;;;;;;41.23;20.50;;;0.40;99.90;;;;;;5078846;28;20254;-80
2023/03/03 02:58:36;;;;;;;36.50;19.70;;;0.40;99.90;;;;;;5079031;28;20178;-80
2023/03/03 03:01:01;;;;;;;35.63;19.67;;;0.50;99.90;;;;;;5097422;28;20218;-80
2023/03/03 03:03:27;;;;;;;34.80;19.47;;;0.50;99.90;;;;;;5097342;28;20205;-80
2023/03/03 03:05:53;;;;;;;36.00;19.97;;;0.50;99.90;;;;;;5079291;28;20605;-80
2023/03/03 03:08:18;;;;;;;36.80;18.57;;;0.60;99.90;;;;;;5077988;28;20197;-80
2023/03/03 03:10:44;;;;;;;37.63;20.03;;;0.50;99.90;;;;;;5090367;28;20190;-80
2023/03/03 03:13:10;;;;;;;34.60;18.17;;;0.50;99.90;;;;;;5079191;28;20184;-80
2023/03/03 03:15:36;;;;;;;40.10;19.47;;;0.50;99.90;;;;;;5098552;28;20210;-80
2023/03/03 03:18:02;;;;;;;43.33;20.30;;;0.40;99.90;;;;;;5079567;28;20175;-80
2023/03/03 03:20:27;;;;;;;38.57;21.03;;;0.50;99.90;;;;;;5079186;28;20198;-80
2023/03/03 03:22:53;;;;;;;37.17;19.53;;;0.60;99.90;;;;;;5097765;28;20259;-81
2023/03/03 03:25:18;;;;;;;39.53;20.33;;;0.60;99.90;;;;;;5098341;28;20629;-80
2023/03/03 03:27:44;;;;;;;40.17;19.73;;;0.50;99.90;;;;;;5079815;28;20183;-81
2023/03/03 03:30:10;;;;;;;35.47;18.20;;;0.60;99.90;;;;;;5080153;28;20192;-80
2023/03/03 03:32:36;;;;;;;35.67;19.23;;;0.60;99.90;;;;;;5079748;28;20213;-80
2023/03/03 03:35:01;;;;;;;36.20;19.20;;;0.60;99.90;;;;;;5079733;28;20196;-81
2023/03/03 03:37:27;;;;;;;38.60;18.77;;;0.40;99.90;;;;;;5099251;28;20638;-80
2023/03/03 03:39:52;;;;;;;38.03;19.43;;;0.40;99.90;;;;;;5080100;28;20191;-80
2023/03/03 03:42:18;;;;;;;36.40;19.57;;;0.40;99.90;;;;;;5099117;28;20243;-80
2023/03/03 03:44:44;;;;;;;35.60;19.70;;;0.40;99.90;;;;;;5080527;28;20271;-80
2023/03/03 03:47:09;;;;;;;37.53;19.80;;;0.50;99.90;;;;;;5080472;28;20171;-80
2023/03/03 03:49:35;;;;;;;37.67;19.47;;;0.60;99.90;;;;;;5080571;28;20214;-79
2023/03/03 03:52:00;;;;;;;37.80;19.40;;;0.60;99.90;;;;;;5098527;28;20168;-81
2023/03/03 03:54:27;;;;;;;37.27;19.90;;;0.60;99.90;;;;;;5061244;28;20294;-82
2023/03/03 03:56:53;;;;;;;38.80;19.40;;;0.60;99.90;;;;;;5060926;28;20176;-81
2023/03/03 03:59:19;;;;;;;36.87;19.23;;;0.60;99.90;;;;;;5068676;28;20209;-80
2023/03/03 04:01:44;;;;;;;36.40;19.13;;;0.70;99.90;;;;;;5091649;28;20247;-80
2023/03/03 04:04:10;;;;;;;36.50;19.20;;;0.70;99.90;;;;;;5099856;28;20292;-80
2023/03/03 04:06:36;;;;;;;37.03;19.23;;;0.70;99.90;;;;;;5091806;28;20183;-80
2023/03/03 04:09:02;;;;;;;38.27;19.13;;;0.70;99.90;;;;;;5100546;28;20191;-80
2023/03/03 04:11:28;;;;;;;37.40;19.43;;;0.70;99.90;;;;;;5081992;28;20164;-81
2023/03/03 04:13:53;;;;;;;39.80;20.17;;;0.50;99.90;;;;;;5082446;28;20550;-80
2023/03/03 04:16:19;;;;;;;40.67;20.03;;;0.40;99.90;;;;;;5082467;28;20243;-81
2023/03/03 04:18:45;;;;;;;36.20;19.67;;;0.30;99.90;;;;;;5101154;28;20171;-80
2023/03/03 04:21:13;;;;;;;41.80;20.67;;;0.40;99.90;;;;;;5100957;28;20183;-80
2023/03/03 04:23:39;;;;;;;41.30;20.53;;;0.40;99.90;;;;;;5082676;28;20573;-80
2023/03/03 04:26:04;;;;;;;40.23;18.97;;;0.40;99.90;;;;;;5083395;28;20748;-81
2023/03/03 04:28:30;;;;;;;38.00;20.93;;;0.50;99.90;;;;;;5084371;28;20184;-82
2023/03/03 04:30:55;;;;;;;43.67;20.67;;;0.50;99.90;;;;;;5083546;28;20230;-82
2023/03/03 04:33:21;;;;;;;39.57;21.20;;;0.60;99.90;;;;;;5083623;28;20176;-81
2023/03/03 04:35:46;;;;;;;43.87;21.20;;;0.60;99.90;;;;;;5084780;28;20242;-80
2023/03/03 04:38:12;;;;;;;41.57;20.57;;;0.60;99.90;;;;;;5084578;28;20194;-80
2023/03/03 04:40:42;;;;;;;39.53;20.90;;;0.70;99.90;;;;;;5103353;28;20199;-82
2023/03/03 04:43:08;;;;;;;41.77;21.47;;;0.60;99.90;;;;;;5085291;28;20199;-81
2023/03/03 04:45:34;;;;;;;40.07;20.77;;;0.60;99.90;;;;;;5085622;28;20171;-82
2023/03/03 04:48:00;;;;;;;43.63;21.93;;;0.60;99.90;;;;;;5104069;28;20171;-81
2023/03/03 04:50:26;;;;;;;40.07;20.80;;;0.70;99.90;;;;;;5085861;28;20713;-81
2023/03/03 04:52:52;;;;;;;41.30;20.53;;;0.70;99.90;;;;;;5105103;28;20187;-80
2023/03/03 04:55:17;;;;;;;39.87;20.77;;;0.70;99.90;;;;;;5086043;28;20172;-81
2023/03/03 04:57:43;;;;;;;42.07;21.10;;;0.60;99.90;;;;;;5105844;28;20182;-81
2023/03/03 05:00:12;;;;;;;42.87;20.37;;;0.60;99.90;;;;;;5104822;28;20218;-82
2023/03/03 05:02:38;;;;;;;43.93;20.87;;;0.50;99.90;;;;;;5087408;28;20201;-81
2023/03/03 05:05:05;;;;;;;41.27;19.87;;;0.40;99.90;;;;;;5105787;28;20171;-81
2023/03/03 05:07:30;;;;;;;41.23;19.87;;;0.50;99.90;;;;;;5089273;28;20175;-81
2023/03/03 05:09:56;;;;;;;42.27;19.97;;;0.60;99.90;;;;;;5090153;28;20196;-81
2023/03/03 05:12:22;;;;;;;40.57;19.93;;;0.60;99.90;;;;;;5100217;28;20183;-80
2023/03/03 05:14:47;;;;;;;40.13;20.47;;;0.50;99.90;;;;;;5075933;28;20179;-81
2023/03/03 05:17:13;;;;;;;36.23;19.20;;;0.50;99.90;;;;;;5093799;28;20336;-80
2023/03/03 05:19:39;;;;;;;42.60;21.10;;;0.40;99.90;;;;;;5075643;28;20207;-79
2023/03/03 05:22:04;;;;;;;45.23;21.80;;;0.30;99.90;;;;;;5094313;28;20183;-80
2023/03/03 05:24:30;;;;;;;42.37;21.20;;;0.30;99.90;;;;;;5094137;28;20203;-80
2023/03/03 05:26:56;;;;;;;40.83;20.20;;;0.40;99.90;;;;;;5075916;28;20179;-80
2023/03/03 05:29:21;;;;;;;40.67;19.90;;;0.30;99.90;;;;;;5075947;28;20290;-80
2023/03/03 05:31:47;;;;;;;39.43;19.43;;;0.40;99.90;;;;;;5075881;28;20175;-80
2023/03/03 05:34:12;;;;;;;38.80;19.20;;;0.40;99.90;;;;;;5094054;28;20190;-80
2023/03/03 05:36:38;;;;;;;37.47;19.63;;;0.40;99.90;;;;;;5075692;28;20228;-80
2023/03/03 05:39:04;;;;;;;38.03;17.77;;;0.40;99.90;;;;;;5075758;28;20251;-80
2023/03/03 05:41:29;;;;;;;40.13;18.63;;;0.50;99.90;;;;;;5093938;28;20182;-80
2023/03/03 05:43:55;;;;;;;40.23;18.20;;;0.50;99.90;;;;;;5093932;28;20759;-80
2023/03/03 05:46:20;;;;;;;39.47;18.20;;;0.50;99.90;;;;;;5075724;28;20254;-81
2023/03/03 05:48:46;;;;;;;36.40;17.37;;;0.50;99.90;;;;;;5075385;28;20539;-80
2023/03/03 05:51:12;;;;;;;41.03;18.73;;;0.50;99.90;;;;;;5094581;28;20530;-80
2023/03/03 05:53:37;;;;;;;38.10;18.97;;;0.50;99.90;;;;;;5075715;28;20205;-80
2023/03/03 05:56:03;;;;;;;36.70;18.27;;;0.50;99.90;;;;;;5068230;28;20183;-81
2023/03/03 05:58:29;;;;;;;38.83;17.27;;;0.50;99.90;;;;;;5093066;28;20189;-82
2023/03/03 06:00:55;;;;;;;41.10;17.80;;;0.40;99.90;;;;;;5093724;28;20273;-82
2023/03/03 06:03:21;;;;;;;38.93;18.20;;;0.50;99.90;;;;;;5075919;28;20345;-82
2023/03/03 06:05:46;;;;;;;38.73;17.70;;;0.50;99.90;;;;;;5075924;28;20175;-83
2023/03/03 06:08:12;;;;;;;33.80;18.03;;;0.60;99.90;;;;;;5075799;28;20265;-82
2023/03/03 06:10:37;;;;;;;36.70;17.23;;;0.30;99.90;;;;;;5075416;28;20221;-83
2023/03/03 06:13:03;;;;;;;31.10;16.00;;;0.30;99.90;;;;;;5093809;28;20179;-81
2023/03/03 06:15:29;;;;;;;34.93;15.70;;;0.40;99.90;;;;;;5093620;28;20251;-80
2023/03/03 06:17:54;;;;;;;36.17;17.67;;;0.30;99.90;;;;;;5076797;28;20171;-81
2023/03/03 06:20:20;;;;;;;34.97;17.20;;;0.50;99.90;;;;;;5076234;28;20223;-79
2023/03/03 06:22:45;;;;;;;32.10;15.63;;;0.80;99.90;;;;;;5075368;28;20214;-78
2023/03/03 06:25:11;;;;;;;28.87;15.87;;;0.80;99.90;;;;;;5095098;28;20249;-77
2023/03/03 06:27:36;;;;;;;31.83;15.53;;;1.00;99.90;;;;;;5076416;28;20235;-77
2023/03/03 06:30:03;;;;;;;31.87;15.47;;;1.00;99.90;;;;;;5094038;28;20192;-77
2023/03/03 06:32:28;;;;;;;31.17;15.00;;;1.00;99.90;;;;;;5093835;28;20175;-77
2023/03/03 06:34:54;;;;;;;33.67;15.27;;;1.20;99.90;;;;;;5076189;28;20178;-77
2023/03/03 06:37:19;;;;;;;29.63;15.90;;;1.30;99.90;;;;;;5076395;28;20184;-79
2023/03/03 06:39:45;;;;;;;28.70;14.83;;;1.40;99.90;;;;;;5076539;28;20195;-79
2023/03/03 06:42:10;;;;;;;29.03;15.37;;;1.30;99.90;;;;;;5077234;28;20673;-79
2023/03/03 06:44:36;;;;;;;31.43;15.80;;;1.10;99.90;;;;;;5076983;28;20224;-78
2023/03/03 06:47:02;;;;;;;31.43;14.73;;;0.90;99.90;;;;;;5094378;28;20164;-80
2023/03/03 06:49:27;;;;;;;29.83;15.47;;;0.80;99.90;;;;;;5076306;28;20204;-81
2023/03/03 06:51:53;;;;;;;30.33;15.37;;;0.70;99.90;;;;;;5077196;28;20169;-81
2023/03/03 06:54:25;;;;;;;29.17;15.37;;;0.70;99.90;;;;;;5095177;28;20689;-86
2023/03/03 06:56:55;;;;;;;30.40;16.00;;;0.70;99.90;;;;;;5075371;28;20237;-85
2023/03/03 06:59:21;;;;;;;30.20;15.33;;;0.70;99.90;;;;;;5092156;28;20191;-87
2023/03/03 07:01:50;;;;;;;29.63;15.23;;;0.70;99.90;;;;;;5091798;28;20184;-86
2023/03/03 07:04:27;;;;;;;28.57;14.20;;;0.70;99.90;;;;;;5074221;28;20233;-87
2023/03/03 07:06:54;;;;;;;29.60;15.13;;;0.60;99.90;;;;;;5074324;28;20181;-87
2023/03/03 07:09:23;;;;;;;32.00;15.63;;;0.70;99.90;;;;;;5073834;28;20233;-88
2023/03/03 07:11:51;;;;;;;33.43;15.97;;;0.80;99.90;;;;;;5074344;28;20180;-86
2023/03/03 07:14:19;;;;;;;30.43;13.93;;;0.80;99.90;;;;;;5093392;28;20259;-86
2023/03/03 07:16:45;;;;;;;30.27;15.13;;;0.70;99.90;;;;;;5076999;28;20175;-84
2023/03/03 07:19:29;;;;;;;29.30;15.23;;;0.80;99.90;;;;;;5095318;28;20199;-81
2023/03/03 07:21:56;;;;;;;29.67;15.20;;;0.80;99.90;;;;;;5076365;28;20183;-84
2023/03/03 07:24:30;;;;;;;30.73;15.03;;;0.90;99.90;;;;;;5077404;28;20199;-85
2023/03/03 07:27:04;;;;;;;29.93;14.93;;;1.00;99.90;;;;;;5096254;28;20258;-84
2023/03/03 07:29:32;;;;;;;26.10;13.93;;;0.90;99.90;;;;;;5075936;28;20199;-81
2023/03/03 07:32:00;;;;;;;28.37;14.67;;;0.90;99.90;;;;;;5094733;28;20179;-82
2023/03/03 07:34:34;;;;;;;28.07;14.17;;;0.90;99.90;;;;;;5095565;28;20188;-82
2023/03/03 07:37:04;;;;;;;25.67;14.03;;;1.00;99.90;;;;;;5081450;28;20179;-83
2023/03/03 07:39:43;;;;;;;24.07;12.70;;;1.00;99.90;;;;;;5099842;28;20608;-81
2023/03/03 07:42:43;;;;;;;25.43;12.47;;;1.00;99.90;;;;;;5087154;28;20241;-82
2023/03/03 07:45:28;;;;;;;24.23;12.53;;;1.00;99.90;;;;;;5105454;28;20308;-83
2023/03/03 07:48:16;;;;;;;21.07;10.67;;;0.90;99.90;;;;;;5104987;28;20186;-83
2023/03/03 07:50:41;;;;;;;25.40;11.73;;;1.00;99.90;;;;;;5105778;28;20756;-82
2023/03/03 07:53:27;;;;;;;23.63;11.97;;;0.80;99.90;;;;;;5105186;28;20180;-84
2023/03/03 07:55:53;;;;;;;21.57;11.00;;;0.90;99.90;;;;;;5081811;28;20662;-83
2023/03/03 07:58:23;;;;;;;20.93;11.47;;;1.00;99.90;;;;;;5108985;28;20172;-83
2023/03/03 08:01:11;;;;;;;22.87;11.30;;;1.10;99.90;;;;;;5092632;28;20196;-83
2023/03/03 08:03:36;;;;;;;22.53;11.17;;;1.10;99.90;;;;;;5112405;28;20218;-83
2023/03/03 08:06:28;;;;;;;20.40;11.13;;;1.30;99.90;;;;;;5095887;28;20173;-83
2023/03/03 08:08:54;;;;;;;21.47;11.07;;;1.30;99.90;;;;;;5101838;28;20176;-81
2023/03/03 08:11:20;;;;;;;19.80;10.50;;;1.30;99.90;;;;;;5074411;28;20772;-83
2023/03/03 08:13:45;;;;;;;19.47;10.43;;;1.40;99.90;;;;;;5077232;28;20180;-81
2023/03/03 08:16:11;;;;;;;17.63;9.93;;;1.50;99.90;;;;;;5060418;28;20256;-81
2023/03/03 08:18:41;;;;;;;20.33;10.57;;;1.60;99.90;;;;;;5072878;28;20183;-83
2023/03/03 08:21:13;;;;;;;18.27;10.23;;;1.60;99.90;;;;;;5069031;28;20229;-83
2023/03/03 08:23:40;;;;;;;19.70;9.83;;;1.70;99.90;;;;;;5057232;28;20773;-83
2023/03/03 08:26:06;;;;;;;20.53;10.00;;;1.70;99.90;;;;;;5057369;28;20181;-82
2023/03/03 08:28:31;;;;;;;18.83;10.10;;;1.70;99.90;;;;;;5057776;28;20298;-82
2023/03/03 08:30:57;;;;;;;17.77;10.20;;;1.80;99.90;;;;;;5056370;28;20193;-81
2023/03/03 08:33:23;;;;;;;16.80;9.50;;;1.80;99.90;;;;;;5056448;28;20177;-82
2023/03/03 08:35:49;;;;;;;19.83;10.60;;;1.80;99.90;;;;;;5056347;28;20173;-82
2023/03/03 08:38:17;;;;;;;16.43;9.20;;;1.80;99.90;;;;;;5074751;28;20263;-84
2023/03/03 08:40:43;;;;;;;16.47;8.97;;;1.80;99.90;;;;;;5057607;28;20255;-84
2023/03/03 08:43:10;;;;;;;17.80;9.53;;;1.70;99.90;;;;;;5077250;28;20291;-84
2023/03/03 08:45:36;;;;;;;17.20;8.93;;;1.70;99.90;;;;;;5056911;28;20201;-82
2023/03/03 08:48:01;;;;;;;17.63;9.87;;;1.60;99.90;;;;;;5056649;28;20176;-82
2023/03/03 08:50:28;;;;;;;15.53;9.27;;;1.50;99.90;;;;;;5089389;22;20224;-94
2023/03/03 08:52:55;;;;;;;14.80;8.60;;;1.40;99.90;;;;;;5101089;28;20237;-95
2023/03/03 08:55:20;;;;;;;15.77;8.77;;;1.50;99.90;;;;;;5108040;28;20172;-94
2023/03/03 08:57:46;;;;;;;15.30;8.63;;;1.50;99.90;;;;;;5106586;28;20228;-93
2023/03/03 09:00:15;;;;;;;15.43;8.87;;;1.60;99.90;;;;;;5080729;28;20225;-93
2023/03/03 09:02:41;;;;;;;16.97;8.90;;;1.60;99.90;;;;;;5097948;28;20267;-95
2023/03/03 09:05:07;;;;;;;15.67;8.50;;;1.70;99.90;;;;;;5078155;28;20203;-93
2023/03/03 09:07:33;;;;;;;14.47;8.17;;;1.70;99.90;;;;;;5077705;28;20172;-93
2023/03/03 09:09:58;;;;;;;15.53;8.43;;;1.70;99.90;;;;;;5076135;28;20221;-93
2023/03/03 09:12:52;;;;;;;16.47;9.03;;;1.70;99.90;;;;;;5100572;28;20195;-94
2023/03/03 09:15:47;;;;;;;18.53;9.00;;;1.90;99.90;;;;;;5077303;28;20642;-93
2023/03/03 09:18:30;;;;;;;14.70;8.43;;;2.00;99.90;;;;;;5094810;28;20180;-95
2023/03/03 09:20:56;;;;;;;16.37;8.63;;;2.00;99.90;;;;;;5080611;28;20337;-95
2023/03/03 09:23:30;;;;;;;16.63;8.67;;;2.00;99.90;;;;;;5097695;28;20208;-93
2023/03/03 09:25:57;;;;;;;17.23;8.63;;;2.10;99.90;;;;;;5093715;28;20674;-91
2023/03/03 09:28:31;;;;;;;15.47;8.03;;;2.10;99.90;;;;;;5075344;28;20537;-93
2023/03/03 09:30:59;;;;;;;15.27;7.80;;;1.90;99.90;;;;;;5077663;28;20196;-92
2023/03/03 09:33:41;;;;;;;15.67;7.90;;;1.90;99.90;;;;;;5095279;28;20176;-90
2023/03/03 09:36:22;;;;;;;14.53;8.13;;;2.00;99.90;;;;;;5075422;28;20171;-92
2023/03/03 09:38:48;;;;;;;17.00;8.90;;;2.10;99.90;;;;;;5074978;28;20176;-91
2023/03/03 09:42:07;;;;;;;15.60;8.60;;;2.10;99.90;;;;;;5074051;28;20200;-91
2023/03/03 09:44:48;;;;;;;12.83;7.53;;;2.00;99.90;;;;;;5029701;28;20232;-91
2023/03/03 09:47:38;;;;;;;16.43;7.93;;;2.20;99.90;;;;;;5030873;28;20225;-90
2023/03/03 09:50:41;;;;;;;14.40;7.70;;;2.10;99.90;;;;;;5082635;28;20215;-90
2023/03/03 09:53:26;;;;;;;15.03;7.97;;;2.20;99.90;;;;;;5081087;28;20174;-91
2023/03/03 09:55:58;;;;;;;14.37;7.37;;;2.10;99.90;;;;;;5071020;28;20187;-91
2023/03/03 09:58:26;;;;;;;13.47;7.57;;;2.10;99.90;;;;;;5069545;28;20217;-91
2023/03/03 10:01:01;;;;;;;13.77;7.87;;;2.00;99.90;;;;;;5063262;28;20216;-94
2023/03/03 10:03:51;;;;;;;14.40;8.13;;;2.00;99.90;;;;;;5062018;28;20216;-91
2023/03/03 10:06:21;;;;;;;16.73;8.13;;;2.00;99.90;;;;;;5066209;28;20173;-95
2023/03/03 10:09:07;;;;;;;15.80;8.47;;;2.00;99.90;;;;;;5060021;28;20627;-90
2023/03/03 10:12:05;;;;;;;15.40;7.37;;;2.10;99.90;;;;;;5074887;28;20547;-93
2023/03/03 10:14:53;;;;;;;14.33;7.37;;;2.20;99.90;;;;;;5075507;28;20510;-92
2023/03/03 10:17:43;;;;;;;15.43;7.70;;;2.30;99.90;;;;;;5055332;28;20180;-92
2023/03/03 10:20:08;;;;;;;15.77;7.33;;;2.30;99.90;;;;;;5057632;28;20215;-93
2023/03/03 10:22:48;;;;;;;13.13;7.50;;;2.40;99.90;;;;;;5098544;28;20184;-91
2023/03/03 10:25:41;;;;;;;12.90;6.80;;;2.40;99.90;;;;;;5065837;28;20188;-90
2023/03/03 10:28:29;;;;;;;13.43;7.23;;;2.40;99.90;;;;;;5060053;28;20173;-91
2023/03/03 10:30:57;;;;;;;12.67;6.93;;;2.50;99.90;;;;;;5058732;28;20197;-92
2023/03/03 10:33:32;;;;;;;11.87;6.30;;;2.60;99.90;;;;;;5058783;28;20165;-92
2023/03/03 10:36:09;;;;;;;12.73;7.10;;;2.70;99.90;;;;;;5060239;28;20164;-92
2023/03/03 10:38:34;;;;;;;12.77;7.13;;;2.80;99.90;;;;;;5060149;28;20164;-92
2023/03/03 10:41:21;;;;;;;10.47;6.20;;;2.90;99.90;;;;;;5058826;28;20189;-91
2023/03/03 10:44:25;;;;;;;11.70;6.53;;;2.90;99.90;;;;;;5060265;28;20200;-91
2023/03/03 10:47:23;;;;;;;11.17;6.37;;;2.90;99.90;;;;;;5061742;28;20169;-91
2023/03/03 10:50:09;;;;;;;12.47;6.37;;;3.00;99.90;;;;;;5088039;22;20294;-94
2023/03/03 10:52:43;;;;;;;9.23;5.70;;;3.00;99.90;;;;;;5039934;28;20269;-94
2023/03/03 10:55:21;;;;;;;10.53;6.00;;;3.20;99.90;;;;;;5020590;28;20175;-94
2023/03/03 10:57:47;;;;;;;11.27;6.33;;;3.40;99.90;;;;;;5038788;28;20170;-95
2023/03/03 11:00:21;;;;;;;12.53;6.30;;;3.80;99.90;;;;;;5037355;28;20210;-94
2023/03/03 11:03:16;;;;;;;10.07;5.97;;;4.00;99.90;;;;;;5019545;28;20178;-94
2023/03/03 11:05:49;;;;;;;11.23;7.07;;;4.10;99.90;;;;;;4990193;28;20176;-91
2023/03/03 11:08:25;;;;;;;9.77;5.60;;;4.20;99.90;;;;;;5020085;28;20178;-91
2023/03/03 11:11:19;;;;;;;9.87;6.13;;;4.10;99.90;;;;;;5037628;28;20200;-91
2023/03/03 11:13:53;;;;;;;11.73;6.50;;;4.10;99.90;;;;;;5019466;28;20263;-91
2023/03/03 11:16:35;;;;;;;9.67;6.13;;;4.30;99.90;;;;;;5022709;28;20204;-91
2023/03/03 11:19:29;;;;;;;8.87;5.87;;;4.60;99.90;;;;;;5023785;28;20183;-91
2023/03/03 11:22:13;;;;;;;11.07;6.00;;;4.70;99.90;;;;;;5023410;28;20531;-91
2023/03/03 11:24:57;;;;;;;10.83;5.70;;;5.00;99.90;;;;;;5022869;28;20232;-91
2023/03/03 11:27:31;;;;;;;9.23;5.83;;;5.30;99.90;;;;;;5022719;28;20180;-91
2023/03/03 11:30:16;;;;;;;9.70;5.73;;;5.80;99.90;;;;;;5021999;28;20247;-90
2023/03/03 11:32:46;;;;;;;10.00;5.73;;;5.90;99.90;;;;;;5022234;28;20205;-91
2023/03/03 11:35:47;;;;;;;10.20;5.67;;;6.00;99.90;;;;;;5022182;28;20184;-91
2023/03/03 11:38:18;;;;;;;10.83;6.17;;;6.40;99.90;;;;;;5002328;28;20182;-92
2023/03/03 11:40:57;;;;;;;9.77;5.93;;;6.50;99.90;;;;;;5020867;28;20289;-91
2023/03/03 11:43:29;;;;;;;12.30;7.30;;;6.30;99.90;;;;;;5021098;28;20228;-92
2023/03/03 11:46:02;;;;;;;14.27;7.03;;;6.90;99.90;;;;;;5021780;28;20186;-91
2023/03/03 11:49:06;;;;;;;12.57;6.70;;;7.30;99.90;;;;;;5020969;28;20202;-91
2023/03/03 11:51:53;;;;;;;12.50;6.50;;;7.60;99.90;;;;;;4987697;28;20193;-91
2023/03/03 11:54:35;;;;;;;12.33;7.63;;;7.60;99.90;;;;;;5038976;28;20187;-91
2023/03/03 11:57:35;;;;;;;10.10;6.27;;;7.70;99.90;;;;;;5021169;28;20175;-92
2023/03/03 12:00:25;;;;;;;11.70;6.57;;;7.70;99.90;;;;;;5038800;28;20207;-91
2023/03/03 12:03:31;;;;;;;12.10;7.27;;;7.60;99.90;;;;;;5038213;28;20262;-91
2023/03/03 12:06:35;;;;;;;12.00;6.63;;;8.00;99.90;;;;;;5020486;28;20172;-91
2023/03/03 12:09:23;;;;;;;13.27;6.93;;;8.00;99.90;;;;;;4977093;28;20172;-92
2023/03/03 12:12:28;;;;;;;13.17;7.30;;;8.20;99.90;;;;;;4961599;28;20214;-91
2023/03/03 12:14:59;;;;;;;12.03;7.23;;;8.20;99.90;;;;;;4977540;28;20279;-91
2023/03/03 12:17:57;;;;;;;12.03;6.87;;;8.20;99.90;;;;;;5020406;28;20173;-91
2023/03/03 12:20:25;;;;;;;9.93;6.27;;;8.40;99.90;;;;;;5037808;28;20196;-91
2023/03/03 12:23:24;;;;;;;11.03;6.57;;;8.30;99.90;;;;;;5037838;28;20178;-92
2023/03/03 12:25:53;;;;;;;10.90;6.67;;;8.40;99.90;;;;;;5019484;28;20169;-91
2023/03/03 12:28:22;;;;;;;10.70;6.20;;;8.90;99.90;;;;;;5020315;28;20170;-91
2023/03/03 12:31:03;;;;;;;10.67;6.13;;;8.90;99.80;;;;;;5020310;28;20190;-91
2023/03/03 12:33:29;;;;;;;11.20;6.37;;;8.90;98.70;;;;;;5020751;28;20212;-91
2023/03/03 12:36:13;;;;;;;9.23;5.87;;;9.10;98.70;;;;;;5039685;28;20214;-91
2023/03/03 12:39:26;;;;;;;11.33;6.00;;;9.00;95.10;;;;;;5038831;28;20174;-92
2023/03/03 12:41:57;;;;;;;9.77;5.90;;;8.80;99.00;;;;;;4975729;28;20721;-91
2023/03/03 12:44:38;;;;;;;9.37;6.17;;;9.10;95.20;;;;;;5020908;28;20217;-91
2023/03/03 12:47:26;;;;;;;11.67;6.30;;;9.10;95.30;;;;;;5019102;28;20199;-91
2023/03/03 12:50:13;;;;;;;10.57;5.97;;;9.40;95.50;;;;;;5018627;28;20202;-91
2023/03/03 12:52:51;;;;;;;10.40;6.00;;;9.60;95.50;;;;;;5018806;28;20176;-91
2023/03/03 12:55:33;;;;;;;10.33;6.33;;;9.80;90.40;;;;;;5018916;28;20197;-91
2023/03/03 12:58:20;;;;;;;9.00;6.10;;;9.80;91.50;;;;;;5018103;28;20175;-91
2023/03/03 13:01:09;;;;;;;10.27;6.27;;;10.00;90.50;;;;;;5034256;28;20192;-91
2023/03/03 13:04:12;;;;;;;10.40;6.70;;;10.40;90.00;;;;;;5016851;28;20736;-91
2023/03/03 13:06:50;;;;;;;10.87;6.40;;;10.20;92.10;;;;;;5033847;28;20171;-91
2023/03/03 13:09:18;;;;;;;9.73;6.00;;;10.10;91.70;;;;;;5034183;28;20203;-92